Time;durP1;ratioP1;P1;durP2;ratioP2;P2;SDS_P1;SDS_P2;PMS_P1;PMS_P2;Temp;Humidity;BMP_temperature;BMP_pressure;BME280_temperature;BME280_humidity;BME280_pressure;Samples;Min_cycle;Max_cycle;Signal;HPM_P1;HPM_P2
2022/09/16 00:00:29;;;;;;;9.63;4.53;;;;;;;16.85;100.00;99581.72;5111423;28;20058;-77
2022/09/16 00:02:56;;;;;;;7.97;4.28;;;;;;;16.78;100.00;99566.97;5111487;28;20478;-77
2022/09/16 00:05:22;;;;;;;5.82;3.75;;;;;;;16.88;100.00;99568.09;5109865;28;20027;-77
2022/09/16 00:07:47;;;;;;;7.35;4.00;;;;;;;16.91;100.00;99571.44;5092695;28;20020;-76
2022/09/16 00:10:16;;;;;;;7.45;4.53;;;;;;;16.92;100.00;99578.53;5110730;28;20421;-76
2022/09/16 00:12:41;;;;;;;8.23;4.13;;;;;;;16.95;100.00;99570.25;5111051;28;20182;-76
2022/09/16 00:15:08;;;;;;;6.57;4.47;;;;;;;16.90;100.00;99566.16;5111147;28;20098;-77
2022/09/16 00:17:33;;;;;;;11.70;4.97;;;;;;;17.01;100.00;99569.00;5110928;28;20109;-76
2022/09/16 00:19:59;;;;;;;8.98;5.65;;;;;;;16.99;100.00;99554.81;5092624;28;20027;-76
2022/09/16 00:22:27;;;;;;;9.07;5.22;;;;;;;16.98;100.00;99563.84;5110268;28;20209;-77
2022/09/16 00:24:52;;;;;;;8.02;5.07;;;;;;;17.00;100.00;99562.75;5109311;28;20031;-76
2022/09/16 00:27:17;;;;;;;8.05;5.03;;;;;;;16.96;100.00;99550.50;5109312;28;20406;-75
2022/09/16 00:29:43;;;;;;;7.53;4.72;;;;;;;17.05;100.00;99555.25;5109384;28;20031;-76
2022/09/16 00:32:08;;;;;;;6.63;3.92;;;;;;;16.93;100.00;99536.41;5090842;28;20072;-76
2022/09/16 00:34:33;;;;;;;6.97;4.60;;;;;;;17.02;100.00;99549.22;5108867;28;20028;-76
2022/09/16 00:37:02;;;;;;;6.95;4.20;;;;;;;17.05;100.00;99559.75;5107668;28;20110;-76
2022/09/16 00:39:27;;;;;;;10.75;5.25;;;;;;;17.08;100.00;99559.59;5109526;28;20039;-77
2022/09/16 00:41:52;;;;;;;8.73;5.05;;;;;;;17.09;100.00;99555.91;5090575;28;20467;-76
2022/09/16 00:44:55;;;;;;;8.50;4.88;;;;;;;17.11;100.00;99554.00;5090413;28;20041;-76
2022/09/16 00:47:30;;;;;;;6.88;4.60;;;;;;;17.08;100.00;99548.84;5108951;28;20031;-76
2022/09/16 00:50:01;;;;;;;6.32;4.20;;;;;;;17.15;100.00;99555.50;5090842;28;20449;-75
2022/09/16 00:52:29;;;;;;;9.23;5.18;;;;;;;17.07;100.00;99536.34;5091806;28;20047;-76
2022/09/16 00:54:55;;;;;;;6.15;4.20;;;;;;;17.15;100.00;99558.19;5092070;28;20118;-76
2022/09/16 00:57:21;;;;;;;8.20;4.90;;;;;;;17.15;100.00;99560.88;5110086;28;20114;-76
2022/09/16 00:59:51;;;;;;;8.77;4.32;;;;;;;17.12;100.00;99550.34;5094111;28;20442;-77
2022/09/16 01:02:20;;;;;;;10.40;4.47;;;;;;;17.19;100.00;99559.72;5089696;28;20505;-76
2022/09/16 01:04:50;;;;;;;11.90;4.68;;;;;;;17.16;100.00;99557.25;5089863;28;20054;-76
2022/09/16 01:07:22;;;;;;;9.20;5.28;;;;;;;17.17;100.00;99540.16;5089448;28;20035;-76
2022/09/16 01:09:48;;;;;;;9.18;5.38;;;;;;;17.20;100.00;99545.31;5089945;28;20046;-76
2022/09/16 01:12:13;;;;;;;10.27;5.32;;;;;;;17.17;100.00;99553.59;5089667;28;20028;-76
2022/09/16 01:14:54;;;;;;;7.43;4.85;;;;;;;17.13;100.00;99545.84;5089611;28;20031;-76
2022/09/16 01:17:25;;;;;;;9.77;5.43;;;;;;;17.20;100.00;99558.75;5089163;28;20027;-76
2022/09/16 01:20:15;;;;;;;10.13;4.88;;;;;;;17.20;100.00;99558.75;5089691;28;20027;-76
2022/09/16 01:22:44;;;;;;;10.50;5.05;;;;;;;17.21;100.00;99560.50;5104086;28;20043;-76
2022/09/16 01:25:12;;;;;;;8.40;4.70;;;;;;;17.20;100.00;99550.69;5110025;28;20016;-76
2022/09/16 01:27:50;;;;;;;8.18;4.70;;;;;;;17.20;100.00;99552.53;5091448;28;20119;-76
2022/09/16 01:30:49;;;;;;;11.45;4.93;;;;;;;17.19;100.00;99548.97;5109802;28;20035;-76
2022/09/16 01:33:33;;;;;;;7.90;4.97;;;;;;;17.18;100.00;99555.34;5108852;28;20077;-76
2022/09/16 01:36:01;;;;;;;7.07;4.65;;;;;;;17.18;100.00;99558.00;5109926;28;20371;-77
2022/09/16 01:38:52;;;;;;;8.75;4.85;;;;;;;17.19;100.00;99554.34;5109193;28;20031;-76
2022/09/16 01:41:27;;;;;;;7.68;4.70;;;;;;;17.10;100.00;99545.06;5091146;28;20024;-76
2022/09/16 01:44:26;;;;;;;7.43;4.75;;;;;;;17.18;100.00;99541.88;5109897;28;20394;-77
2022/09/16 01:47:02;;;;;;;8.27;4.57;;;;;;;17.18;100.00;99543.72;5109260;28;20019;-77
2022/09/16 01:49:39;;;;;;;8.35;5.35;;;;;;;17.19;100.00;99540.91;5109548;28;20032;-76
2022/09/16 01:52:16;;;;;;;10.20;5.55;;;;;;;17.19;100.00;99545.41;5107658;28;20031;-76
2022/09/16 01:54:48;;;;;;;7.70;4.30;;;;;;;17.20;100.00;99544.47;5070895;28;20036;-77
2022/09/16 01:57:40;;;;;;;8.25;5.43;;;;;;;17.13;100.00;99528.72;5097887;28;20028;-77
2022/09/16 02:00:09;;;;;;;12.95;5.60;;;;;;;17.19;100.00;99538.22;5109229;28;20023;-76
2022/09/16 02:02:45;;;;;;;9.60;5.20;;;;;;;17.18;100.00;99528.44;5107819;28;20023;-76
2022/09/16 02:05:17;;;;;;;8.40;5.35;;;;;;;17.20;100.00;99539.94;5089457;28;20073;-75
2022/09/16 02:07:48;;;;;;;9.45;4.97;;;;;;;17.21;100.00;99544.38;5088708;28;20113;-75
2022/09/16 02:10:37;;;;;;;8.75;5.13;;;;;;;17.22;100.00;99542.53;5070436;28;20067;-76
2022/09/16 02:13:11;;;;;;;8.23;4.65;;;;;;;17.24;100.00;99540.59;5105250;28;20074;-75
2022/09/16 02:15:40;;;;;;;8.52;5.15;;;;;;;17.26;100.00;99541.34;5091022;28;20619;-75
2022/09/16 02:18:12;;;;;;;10.55;5.55;;;;;;;17.24;100.00;99543.28;5108744;28;20039;-75
2022/09/16 02:20:43;;;;;;;9.07;4.93;;;;;;;17.17;100.00;99533.91;5109448;28;20034;-75
2022/09/16 02:23:24;;;;;;;7.78;4.75;;;;;;;17.25;100.00;99550.41;5109232;28;20051;-75
2022/09/16 02:25:53;;;;;;;9.88;4.75;;;;;;;17.21;100.00;99533.63;5109334;28;20532;-76
2022/09/16 02:28:25;;;;;;;9.32;5.95;;;;;;;17.27;100.00;99549.31;5090638;28;20034;-76
2022/09/16 02:30:54;;;;;;;9.52;5.43;;;;;;;17.29;100.00;99546.53;5113167;28;20139;-75
2022/09/16 02:33:22;;;;;;;7.90;5.65;;;;;;;17.24;100.00;99533.41;5113320;28;20391;-75
2022/09/16 02:35:51;;;;;;;9.07;4.65;;;;;;;17.28;100.00;99534.91;5113336;28;20548;-75
2022/09/16 02:38:25;;;;;;;7.28;4.38;;;;;;;17.26;100.00;99544.06;5112801;28;20028;-75
2022/09/16 02:40:56;;;;;;;7.90;4.88;;;;;;;17.23;100.00;99537.06;5113181;28;20023;-75
2022/09/16 02:43:23;;;;;;;7.88;4.93;;;;;;;17.26;100.00;99550.31;5113233;28;20035;-75
2022/09/16 02:46:10;;;;;;;8.27;5.05;;;;;;;17.28;100.00;99548.34;5112965;28;20107;-76
2022/09/16 02:48:44;;;;;;;9.07;4.97;;;;;;;17.19;100.00;99551.66;5112734;28;20162;-75
2022/09/16 02:51:30;;;;;;;8.75;5.03;;;;;;;17.12;100.00;99539.59;5112805;28;20024;-76
2022/09/16 02:54:04;;;;;;;7.72;5.00;;;;;;;17.18;100.00;99539.19;5112857;28;20054;-76
2022/09/16 02:56:39;;;;;;;10.25;5.55;;;;;;;17.26;100.00;99534.16;5094411;28;20066;-75
2022/09/16 02:59:07;;;;;;;7.25;5.03;;;;;;;17.18;100.00;99531.13;5112764;28;20028;-76
2022/09/16 03:01:37;;;;;;;8.55;5.35;;;;;;;17.20;100.00;99525.66;5113273;28;20424;-75
2022/09/16 03:04:03;;;;;;;7.95;4.93;;;;;;;17.22;100.00;99534.44;5094194;28;20080;-75
2022/09/16 03:06:31;;;;;;;8.90;5.55;;;;;;;17.12;100.00;99523.47;5098337;28;20028;-75
2022/09/16 03:08:59;;;;;;;8.45;5.25;;;;;;;17.20;100.00;99528.34;5091972;28;20410;-75
2022/09/16 03:11:28;;;;;;;8.50;5.15;;;;;;;17.22;100.00;99534.44;5092468;28;20024;-75
2022/09/16 03:14:15;;;;;;;12.15;5.30;;;;;;;17.19;100.00;99526.59;5073562;28;20023;-74
2022/09/16 03:17:02;;;;;;;8.10;5.07;;;;;;;17.18;100.00;99528.44;5073721;28;20039;-76
2022/09/16 03:19:44;;;;;;;7.63;4.63;;;;;;;17.13;100.00;99525.22;5091974;28;20045;-75
2022/09/16 03:22:48;;;;;;;7.57;4.55;;;;;;;17.12;100.00;99520.78;5102325;28;20042;-75
2022/09/16 03:26:01;;;;;;;11.50;5.28;;;;;;;17.10;100.00;99518.19;5093542;28;20477;-75
2022/09/16 03:28:36;;;;;;;14.25;5.10;;;;;;;17.02;100.00;99511.59;5072768;28;20119;-77
2022/09/16 03:31:04;;;;;;;7.45;4.93;;;;;;;16.98;100.00;99516.31;5091695;28;20596;-76
2022/09/16 03:33:56;;;;;;;7.93;4.95;;;;;;;16.98;100.00;99516.31;5091614;28;20471;-75
2022/09/16 03:36:27;;;;;;;10.70;5.65;;;;;;;16.99;100.00;99523.44;5091509;28;20102;-75
2022/09/16 03:38:53;;;;;;;9.20;4.93;;;;;;;16.99;100.00;99522.56;5093558;28;20414;-68
2022/09/16 03:41:20;;;;;;;9.35;4.80;;;;;;;16.98;100.00;99520.84;5112071;28;20058;-69
2022/09/16 03:43:57;;;;;;;7.88;4.65;;;;;;;16.99;100.00;99519.88;5113263;28;20125;-68
2022/09/16 03:46:24;;;;;;;10.63;5.03;;;;;;;16.94;100.00;99519.31;5112279;28;20047;-68
2022/09/16 03:48:49;;;;;;;7.80;4.95;;;;;;;16.94;100.00;99524.69;5100025;28;20035;-68
2022/09/16 03:51:15;;;;;;;7.10;4.38;;;;;;;16.95;100.00;99516.53;5095090;28;20511;-67
2022/09/16 03:53:40;;;;;;;10.20;5.07;;;;;;;16.87;100.00;99508.13;5111876;28;20063;-68
2022/09/16 03:56:06;;;;;;;11.13;4.90;;;;;;;16.94;100.00;99519.31;5095250;28;20028;-68
2022/09/16 03:58:31;;;;;;;8.38;4.93;;;;;;;16.92;100.00;99515.88;5109839;28;20040;-68
2022/09/16 04:00:57;;;;;;;7.75;4.88;;;;;;;16.89;100.00;99516.06;5109943;28;20038;-68
2022/09/16 04:03:22;;;;;;;8.68;4.85;;;;;;;16.91;100.00;99519.53;5109853;28;20119;-68
2022/09/16 04:05:55;;;;;;;10.30;5.03;;;;;;;16.88;100.00;99517.03;5110336;28;20363;-68
2022/09/16 04:08:21;;;;;;;7.53;4.47;;;;;;;16.86;100.00;99513.59;5110192;28;20024;-69
2022/09/16 04:10:59;;;;;;;8.82;4.55;;;;;;;16.84;100.00;99524.44;5112479;28;20035;-73
2022/09/16 04:13:29;;;;;;;9.35;5.00;;;;;;;16.77;100.00;99522.28;5114305;28;20402;-72
2022/09/16 04:15:55;;;;;;;7.80;4.90;;;;;;;16.71;100.00;99511.91;5113177;28;20024;-73
2022/09/16 04:18:20;;;;;;;8.00;4.80;;;;;;;16.75;100.00;99527.72;5111762;28;20088;-75
2022/09/16 04:20:45;;;;;;;7.80;4.30;;;;;;;16.76;100.00;99525.91;5093043;28;20028;-74
2022/09/16 04:23:11;;;;;;;7.00;4.32;;;;;;;16.68;100.00;99522.84;5110753;28;20051;-75
2022/09/16 04:25:36;;;;;;;7.32;4.95;;;;;;;16.71;100.00;99528.03;5111230;28;20104;-75
2022/09/16 04:28:02;;;;;;;7.85;5.03;;;;;;;16.62;100.00;99515.22;5111961;28;20478;-75
2022/09/16 04:30:27;;;;;;;9.85;4.95;;;;;;;16.63;100.00;99519.59;5092888;28;20019;-73
2022/09/16 04:32:54;;;;;;;15.45;6.25;;;;;;;16.68;100.00;99536.28;5093446;28;20035;-73
2022/09/16 04:35:20;;;;;;;9.25;5.28;;;;;;;16.60;100.00;99530.56;5110114;28;20508;-73
2022/09/16 04:37:46;;;;;;;10.98;5.38;;;;;;;16.55;100.00;99538.03;5091585;28;20076;-73
2022/09/16 04:40:11;;;;;;;9.88;4.90;;;;;;;16.52;100.00;99532.88;5110234;28;20495;-75
2022/09/16 04:42:37;;;;;;;9.18;5.07;;;;;;;16.57;100.00;99531.59;5110464;28;20098;-74
2022/09/16 04:45:02;;;;;;;11.50;4.97;;;;;;;16.57;100.00;99522.69;5109906;28;20555;-74
2022/09/16 04:47:28;;;;;;;9.45;4.75;;;;;;;16.59;100.00;99528.84;5109853;28;20027;-74
2022/09/16 04:49:54;;;;;;;9.10;5.07;;;;;;;16.60;100.00;99526.06;5110055;28;20394;-75
2022/09/16 04:52:19;;;;;;;9.95;5.18;;;;;;;16.57;100.00;99511.97;5110206;28;20417;-74
2022/09/16 04:54:44;;;;;;;8.27;5.60;;;;;;;16.58;100.00;99516.34;5092228;28;20031;-74
2022/09/16 04:57:10;;;;;;;8.05;5.05;;;;;;;16.55;100.00;99520.13;5110775;28;20027;-75
2022/09/16 04:59:35;;;;;;;7.93;4.40;;;;;;;16.47;100.00;99522.44;5092106;28;20023;-75
2022/09/16 05:02:01;;;;;;;11.65;5.15;;;;;;;16.51;100.00;99531.13;5110634;28;20096;-74
2022/09/16 05:04:26;;;;;;;10.50;4.97;;;;;;;16.51;100.00;99541.88;5092411;28;20485;-75
2022/09/16 05:06:52;;;;;;;11.23;4.78;;;;;;;16.52;100.00;99538.25;5105076;28;20106;-73
2022/09/16 05:09:17;;;;;;;8.30;5.40;;;;;;;16.44;100.00;99527.09;5090074;28;20020;-73
2022/09/16 05:11:43;;;;;;;9.82;4.68;;;;;;;16.50;100.00;99545.53;5090584;28;20033;-73
2022/09/16 05:14:14;;;;;;;8.65;5.22;;;;;;;16.47;100.00;99543.91;5072109;28;20115;-73
2022/09/16 05:16:40;;;;;;;12.02;4.80;;;;;;;16.50;100.00;99545.53;5090201;28;20031;-73
2022/09/16 05:19:06;;;;;;;8.88;4.90;;;;;;;16.49;100.00;99550.03;5090196;28;20036;-73
2022/09/16 05:21:34;;;;;;;8.48;5.10;;;;;;;16.45;100.00;99537.78;5090620;28;20061;-73
2022/09/16 05:24:01;;;;;;;8.88;5.22;;;;;;;16.48;100.00;99537.56;5090166;28;20043;-73
2022/09/16 05:26:30;;;;;;;9.25;5.47;;;;;;;16.49;100.00;99538.44;5090162;28;20399;-73
2022/09/16 05:28:58;;;;;;;9.50;4.78;;;;;;;16.40;100.00;99528.25;5109731;28;20114;-73
2022/09/16 05:31:27;;;;;;;9.75;5.07;;;;;;;16.40;100.00;99528.25;5110369;28;20038;-72
2022/09/16 05:34:06;;;;;;;9.23;4.85;;;;;;;16.49;100.00;99546.50;5109816;28;20098;-73
2022/09/16 05:36:36;;;;;;;9.32;4.80;;;;;;;16.49;100.00;99543.81;5110044;28;20121;-73
2022/09/16 05:39:02;;;;;;;11.35;4.75;;;;;;;16.44;100.00;99540.53;5108421;28;20038;-72
2022/09/16 05:41:28;;;;;;;8.38;4.60;;;;;;;16.44;100.00;99546.75;5104446;28;20028;-72
2022/09/16 05:43:56;;;;;;;8.60;4.78;;;;;;;16.42;100.00;99545.13;5109192;28;20019;-72
2022/09/16 05:46:23;;;;;;;9.45;5.05;;;;;;;16.32;100.00;99538.63;5108065;28;20027;-72
2022/09/16 05:48:48;;;;;;;7.78;4.95;;;;;;;16.40;100.00;99547.03;5108713;28;20030;-72
2022/09/16 05:51:16;;;;;;;8.88;4.88;;;;;;;16.29;100.00;99546.88;5108908;28;20424;-72
2022/09/16 05:53:43;;;;;;;9.93;5.03;;;;;;;16.24;100.00;99532.88;5109011;28;20032;-72
2022/09/16 05:56:17;;;;;;;7.70;3.70;;;;;;;16.31;100.00;99550.31;5091822;28;20031;-72
2022/09/16 05:58:42;;;;;;;9.25;4.30;;;;;;;16.32;100.00;99568.13;5110758;28;20032;-72
2022/09/16 06:01:14;;;;;;;10.70;4.50;;;;;;;16.25;100.00;99551.56;5111023;28;20070;-72
2022/09/16 06:03:42;;;;;;;8.32;5.05;;;;;;;16.31;100.00;99556.53;5111592;28;20046;-72
2022/09/16 06:06:13;;;;;;;8.05;4.28;;;;;;;16.34;100.00;99560.88;5115495;28;20028;-72
2022/09/16 06:08:39;;;;;;;8.02;4.60;;;;;;;16.37;100.00;99572.28;5115491;28;20027;-69
2022/09/16 06:11:07;;;;;;;6.70;3.90;;;;;;;16.36;100.00;99570.53;5114776;28;20027;-69
2022/09/16 06:13:33;;;;;;;7.20;4.22;;;;;;;16.33;100.00;99570.72;5114102;28;20031;-70
2022/09/16 06:16:00;;;;;;;12.27;4.53;;;;;;;16.28;100.00;99558.53;5113529;28;20076;-69
2022/09/16 06:18:28;;;;;;;7.00;3.97;;;;;;;16.35;100.00;99573.31;5113421;28;20038;-68
2022/09/16 06:20:54;;;;;;;12.32;4.15;;;;;;;16.32;100.00;99589.59;5113743;28;20024;-68
2022/09/16 06:23:21;;;;;;;7.43;4.13;;;;;;;16.27;100.00;99584.53;5093053;28;20044;-67
2022/09/16 06:25:47;;;;;;;8.07;4.15;;;;;;;16.28;100.00;99577.31;5092457;28;20032;-68
2022/09/16 06:28:13;;;;;;;7.22;4.10;;;;;;;16.30;100.00;99594.22;5092688;28;20089;-68
2022/09/16 06:30:38;;;;;;;6.45;3.70;;;;;;;16.19;100.00;99585.97;5092962;28;20467;-68
2022/09/16 06:33:04;;;;;;;7.43;3.38;;;;;;;16.16;100.00;99588.84;5093263;28;20028;-68
2022/09/16 06:35:30;;;;;;;11.10;4.18;;;;;;;16.18;100.00;99594.97;5092852;28;20067;-68
2022/09/16 06:37:55;;;;;;;7.65;3.90;;;;;;;16.21;100.00;99598.31;5092917;28;20030;-69
2022/09/16 06:40:21;;;;;;;7.93;3.97;;;;;;;16.26;100.00;99600.75;5092735;28;20051;-68
2022/09/16 06:42:47;;;;;;;7.07;4.32;;;;;;;16.29;100.00;99590.66;5092582;28;20039;-68
2022/09/16 06:45:12;;;;;;;6.38;3.50;;;;;;;16.24;100.00;99605.34;5092618;28;20043;-68
2022/09/16 06:47:41;;;;;;;7.95;3.97;;;;;;;16.22;100.00;99604.56;5092479;28;20036;-69
2022/09/16 06:50:06;;;;;;;6.72;3.25;;;;;;;16.16;100.00;99599.59;5092580;28;20039;-69
2022/09/16 06:52:32;;;;;;;6.78;3.47;;;;;;;16.15;100.00;99597.84;5106173;28;20023;-69
2022/09/16 06:54:57;;;;;;;9.18;4.00;;;;;;;16.23;100.00;99596.41;5093858;28;20019;-69
2022/09/16 06:57:22;;;;;;;7.47;3.83;;;;;;;16.34;100.00;99598.44;5112689;28;20110;-69
2022/09/16 06:59:49;;;;;;;6.10;3.55;;;;;;;16.31;100.00;99604.00;5094146;28;20085;-69
2022/09/16 07:02:15;;;;;;;6.57;3.30;;;;;;;16.26;100.00;99608.78;5112631;28;20036;-69
2022/09/16 07:04:40;;;;;;;6.95;3.40;;;;;;;16.23;100.00;99611.63;5112355;28;20638;-69
2022/09/16 07:07:06;;;;;;;6.28;3.22;;;;;;;16.13;100.00;99592.56;5112582;28;20031;-69
2022/09/16 07:09:31;;;;;;;7.22;4.03;;;;;;;16.19;100.00;99599.38;5112630;28;20031;-69
2022/09/16 07:11:58;;;;;;;5.90;3.58;;;;;;;16.22;100.00;99600.06;5112242;28;20033;-70
2022/09/16 07:14:24;;;;;;;8.25;3.30;;;;;;;16.23;100.00;99600.91;5111851;28;20427;-69
2022/09/16 07:16:50;;;;;;;6.68;3.88;;;;;;;16.24;100.00;99602.66;5106703;28;20020;-70
2022/09/16 07:19:16;;;;;;;7.13;3.38;;;;;;;16.29;100.00;99600.53;5092243;28;20364;-69
2022/09/16 07:21:41;;;;;;;5.88;3.83;;;;;;;16.27;100.00;99600.66;5098693;28;20027;-70
2022/09/16 07:24:10;;;;;;;8.20;3.78;;;;;;;16.25;100.00;99610.59;5112099;28;20043;-70
2022/09/16 07:26:38;;;;;;;8.73;3.95;;;;;;;16.23;100.00;99606.28;5112337;28;20494;-70
2022/09/16 07:29:06;;;;;;;8.20;3.75;;;;;;;16.22;100.00;99604.56;5110317;28;20413;-69
2022/09/16 07:31:36;;;;;;;8.15;3.42;;;;;;;16.23;100.00;99611.63;5110571;28;20026;-70
2022/09/16 07:34:02;;;;;;;6.15;3.10;;;;;;;16.28;100.00;99613.09;5089936;28;20024;-70
2022/09/16 07:36:32;;;;;;;5.40;3.15;;;;;;;16.24;100.00;99614.25;5089275;28;20035;-69
2022/09/16 07:38:58;;;;;;;7.47;4.13;;;;;;;16.28;100.00;99620.28;5088820;28;20032;-69
2022/09/16 07:41:26;;;;;;;5.72;3.53;;;;;;;16.34;100.00;99617.22;5088957;28;20444;-69
2022/09/16 07:43:57;;;;;;;5.10;3.10;;;;;;;16.40;100.00;99624.88;5091232;28;20020;-70
2022/09/16 07:46:24;;;;;;;7.00;3.50;;;;;;;16.44;100.00;99618.38;5073929;28;20030;-69
2022/09/16 07:48:50;;;;;;;5.93;3.63;;;;;;;16.46;100.00;99619.16;5092135;28;20032;-69
2022/09/16 07:51:18;;;;;;;8.07;3.72;;;;;;;16.42;100.00;99622.97;5099308;28;20019;-70
2022/09/16 07:53:45;;;;;;;4.95;3.33;;;;;;;16.38;100.00;99624.97;5112298;28;20478;-69
2022/09/16 07:56:13;;;;;;;6.30;3.60;;;;;;;16.39;100.00;99625.84;5111780;28;20399;-69
2022/09/16 07:58:40;;;;;;;8.45;3.50;;;;;;;16.39;100.00;99617.81;5093629;28;20049;-69
2022/09/16 08:01:06;;;;;;;7.00;3.80;;;;;;;16.51;100.00;99633.16;5111869;28;20051;-69
2022/09/16 08:03:36;;;;;;;10.05;4.40;;;;;;;16.51;100.00;99623.28;5112352;28;20101;-70
2022/09/16 08:06:05;;;;;;;7.10;3.95;;;;;;;16.59;100.00;99630.88;5113297;28;20053;-70
2022/09/16 08:08:31;;;;;;;7.50;4.07;;;;;;;16.58;100.00;99639.88;5113324;28;20027;-70
2022/09/16 08:10:58;;;;;;;6.50;4.22;;;;;;;16.56;100.00;99639.97;5112905;28;20110;-70
2022/09/16 08:13:24;;;;;;;12.07;4.72;;;;;;;16.66;100.00;99638.44;5113826;28;20024;-70
2022/09/16 08:15:49;;;;;;;8.80;3.95;;;;;;;16.73;100.00;99645.16;5114343;28;20372;-70
2022/09/16 08:18:15;;;;;;;8.93;4.43;;;;;;;16.75;100.00;99642.38;5114166;28;20092;-70
2022/09/16 08:20:41;;;;;;;7.55;4.25;;;;;;;16.70;100.00;99628.38;5114337;28;20028;-70
2022/09/16 08:23:06;;;;;;;7.40;3.75;;;;;;;16.84;100.00;99637.28;5114152;28;20530;-70
2022/09/16 08:25:32;;;;;;;11.25;4.90;;;;;;;16.91;100.00;99635.06;5116251;28;20031;-68
2022/09/16 08:27:57;;;;;;;6.72;4.20;;;;;;;16.95;100.00;99648.19;5116111;28;20023;-68
2022/09/16 08:30:23;;;;;;;8.73;4.35;;;;;;;16.98;100.00;99649.81;5116699;28;20027;-68
2022/09/16 08:32:55;;;;;;;7.50;3.97;;;;;;;16.99;100.00;99651.53;5116412;28;20016;-68
2022/09/16 08:35:20;;;;;;;7.15;3.72;;;;;;;16.94;100.00;99648.28;5116442;28;20027;-68
2022/09/16 08:37:45;;;;;;;6.40;4.15;;;;;;;16.87;100.00;99646.94;5116065;28;20635;-69
2022/09/16 08:40:17;;;;;;;7.15;4.15;;;;;;;16.94;100.00;99650.97;5117901;28;20030;-69
2022/09/16 08:43:02;;;;;;;6.32;3.05;;;;;;;16.93;100.00;99647.41;5117050;28;20491;-69
2022/09/16 08:45:51;;;;;;;18.40;4.32;;;;;;;16.91;100.00;99654.72;5117215;28;20038;-69
2022/09/16 08:48:44;;;;;;;8.18;4.78;;;;;;;16.90;100.00;99661.03;5098176;28;20032;-69
2022/09/16 08:51:16;;;;;;;8.10;4.13;;;;;;;16.91;100.00;99659.22;5116749;28;20043;-69
2022/09/16 08:54:22;;;;;;;6.18;3.90;;;;;;;16.86;100.00;99650.59;5117821;28;20023;-69
2022/09/16 08:56:48;;;;;;;5.60;3.42;;;;;;;16.88;100.00;99659.44;5116831;28;20030;-70
2022/09/16 08:59:20;;;;;;;7.88;3.80;;;;;;;16.91;100.00;99659.22;5116682;28;20052;-70
2022/09/16 09:01:53;;;;;;;9.48;4.13;;;;;;;16.99;100.00;99656.91;5116732;28;20022;-69
2022/09/16 09:04:18;;;;;;;6.25;3.33;;;;;;;16.99;100.00;99657.78;5116202;28;20032;-70
2022/09/16 09:06:57;;;;;;;7.82;3.58;;;;;;;16.98;100.00;99660.56;5117752;28;20359;-70
2022/09/16 09:09:44;;;;;;;5.82;3.53;;;;;;;17.00;100.00;99658.66;5107865;28;20020;-70
2022/09/16 09:12:27;;;;;;;7.05;3.20;;;;;;;16.89;100.00;99645.91;5097696;28;20062;-70
2022/09/16 09:15:26;;;;;;;5.30;3.65;;;;;;;17.00;100.00;99659.50;5098843;28;20388;-70
2022/09/16 09:18:10;;;;;;;7.55;3.38;;;;;;;17.17;100.00;99666.47;5119944;28;20033;-69
2022/09/16 09:21:04;;;;;;;4.82;3.35;;;;;;;17.07;100.00;99665.34;5122031;28;20019;-70
2022/09/16 09:23:38;;;;;;;5.93;3.75;;;;;;;17.28;100.00;99672.00;5101437;28;20109;-70
2022/09/16 09:26:27;;;;;;;6.88;3.55;;;;;;;17.29;100.00;99667.50;5100935;28;20035;-70
2022/09/16 09:29:21;;;;;;;6.95;3.70;;;;;;;17.34;100.00;99662.69;5101990;28;20466;-70
2022/09/16 09:32:06;;;;;;;;;;;;;;;17.49;100.00;99667.97;5082768;28;20031;-70
2022/09/16 09:35:01;;;;;;;7.05;3.70;;;;;;;17.46;100.00;99675.38;5101691;28;19912;-70
2022/09/16 09:37:41;;;;;;;5.80;3.35;;;;;;;17.48;100.00;99673.44;5061229;28;20058;-70
2022/09/16 09:40:31;;;;;;;7.53;4.28;;;;;;;17.46;100.00;99673.50;5120665;28;20398;-70
2022/09/16 09:43:18;;;;;;;10.27;4.38;;;;;;;17.48;100.00;99671.59;5113056;28;20111;-70
2022/09/16 09:46:12;;;;;;;9.27;4.80;;;;;;;17.44;100.00;99675.44;5100872;28;20037;-70
2022/09/16 09:48:46;;;;;;;7.45;3.97;;;;;;;17.47;100.00;99672.56;5096953;28;20044;-70
2022/09/16 09:51:22;;;;;;;7.38;4.07;;;;;;;17.40;100.00;99657.75;5101308;28;20020;-70
2022/09/16 09:54:00;;;;;;;8.40;3.95;;;;;;;17.32;100.00;99670.84;5118800;28;20110;-70
2022/09/16 09:56:40;;;;;;;6.35;3.17;;;;;;;17.33;100.00;99672.56;5116779;28;20112;-71
2022/09/16 09:59:30;;;;;;;8.95;4.35;;;;;;;17.34;100.00;99668.06;5113911;28;20103;-70
2022/09/16 10:01:57;;;;;;;6.90;3.92;;;;;;;17.36;100.00;99669.72;5116515;28;20046;-70
2022/09/16 10:04:23;;;;;;;6.68;4.10;;;;;;;17.43;100.00;99662.94;5116356;28;20074;-70
2022/09/16 10:06:53;;;;;;;9.15;4.13;;;;;;;17.61;100.00;99672.50;5114029;28;20019;-70
2022/09/16 10:09:20;;;;;;;6.88;4.10;;;;;;;17.96;100.00;99662.94;5113091;28;20081;-70
2022/09/16 10:11:55;;;;;;;8.40;4.00;;;;;;;18.36;100.00;99666.44;5113235;28;20016;-70
2022/09/16 10:14:30;;;;;;;8.77;4.57;;;;;;;18.83;100.00;99665.81;5111051;28;20023;-70
2022/09/16 10:16:59;;;;;;;8.63;4.78;;;;;;;19.24;99.86;99663.66;5110819;28;20028;-70
2022/09/16 10:19:26;;;;;;;6.47;4.35;;;;;;;19.46;96.35;99655.72;5110493;28;20366;-70
2022/09/16 10:22:08;;;;;;;8.18;4.78;;;;;;;19.77;94.41;99655.13;5110718;28;20058;-70
2022/09/16 10:24:42;;;;;;;8.70;4.35;;;;;;;20.10;91.38;99657.13;5111644;28;20101;-70
2022/09/16 10:27:39;;;;;;;;;;;;;;;20.22;89.84;99654.34;5111781;28;20028;-70
2022/09/16 10:30:20;;;;;;;5.57;3.70;;;;;;;19.75;84.05;99650.84;5078016;28;20263;-70
2022/09/16 10:32:56;;;;;;;9.38;4.35;;;;;;;19.66;86.26;99657.78;5093255;28;20023;-71
2022/09/16 10:35:23;;;;;;;7.43;4.78;;;;;;;19.44;87.93;99644.19;5110867;28;20023;-71
2022/09/16 10:37:56;;;;;;;14.02;4.22;;;;;;;19.34;88.56;99645.88;5109669;28;20023;-71
2022/09/16 10:40:23;;;;;;;6.82;4.43;;;;;;;19.17;89.28;99651.59;5092022;28;20028;-70
2022/09/16 10:42:55;;;;;;;10.13;4.68;;;;;;;18.98;90.99;99649.38;5110040;28;20066;-70
2022/09/16 10:45:32;;;;;;;10.35;4.45;;;;;;;18.82;92.70;99653.28;5113675;28;20031;-69
2022/09/16 10:48:00;;;;;;;9.68;5.00;;;;;;;18.64;94.11;99655.47;5120060;28;20031;-70
2022/09/16 10:50:26;;;;;;;8.10;4.60;;;;;;;18.44;95.96;99647.94;5125261;28;20047;-70
2022/09/16 10:52:52;;;;;;;9.32;4.57;;;;;;;18.37;97.80;99651.97;5121349;28;20036;-68
2022/09/16 10:55:26;;;;;;;8.75;4.55;;;;;;;18.26;99.12;99652.75;5115908;28;20031;-69
2022/09/16 10:58:05;;;;;;;8.70;5.13;;;;;;;18.09;99.72;99642.28;5117764;28;20031;-68
2022/09/16 11:00:40;;;;;;;8.57;4.03;;;;;;;18.08;100.00;99662.09;5109509;28;20073;-69
2022/09/16 11:03:24;;;;;;;6.68;3.88;;;;;;;17.94;100.00;99664.84;5075772;28;20024;-69
2022/09/16 11:05:55;;;;;;;6.32;3.53;;;;;;;17.83;100.00;99678.19;5093205;28;20047;-69
2022/09/16 11:08:40;;;;;;;9.80;3.90;;;;;;;17.77;100.00;99678.63;5093569;28;20016;-69
2022/09/16 11:11:26;;;;;;;6.78;3.10;;;;;;;17.97;100.00;99674.56;5093436;28;20495;-69
2022/09/16 11:14:21;;;;;;;6.53;3.08;;;;;;;18.27;100.00;99667.06;5092716;28;20049;-69
2022/09/16 11:17:24;;;;;;;8.13;3.53;;;;;;;18.45;99.34;99655.03;5092992;28;20107;-69
2022/09/16 11:20:01;;;;;;;6.20;2.88;;;;;;;18.89;98.83;99660.84;5092293;28;20039;-69
2022/09/16 11:22:33;;;;;;;8.38;3.17;;;;;;;19.15;97.08;99664.31;5085825;28;20130;-69
2022/09/16 11:25:29;;;;;;;5.32;3.00;;;;;;;19.63;93.90;99664.31;5112129;28;20031;-69
2022/09/16 11:28:19;;;;;;;5.07;2.70;;;;;;;19.69;89.00;99668.34;5111866;28;20034;-69
2022/09/16 11:31:23;;;;;;;5.15;2.10;;;;;;;19.91;87.72;99667.59;5112087;28;20108;-68
2022/09/16 11:34:02;;;;;;;6.15;2.38;;;;;;;20.61;87.89;99653.06;5108903;28;20137;-68
2022/09/16 11:36:50;;;;;;;8.90;2.40;;;;;;;21.85;84.28;99657.22;5111807;28;20024;-68
2022/09/16 11:39:39;;;;;;;4.97;2.03;;;;;;;22.81;70.88;99654.22;5111631;28;20486;-69
2022/09/16 11:42:11;;;;;;;5.40;2.40;;;;;;;23.33;69.16;99656.72;5111625;28;20054;-69
2022/09/16 11:44:55;;;;;;;5.38;1.73;;;;;;;24.03;68.45;99653.84;5111653;28;20105;-69
2022/09/16 11:47:36;;;;;;;3.92;1.13;;;;;;;23.96;57.91;99662.69;5111608;28;20102;-69